Time;durP1;ratioP1;P1;durP2;ratioP2;P2;SDS_P1;SDS_P2;PMS_P1;PMS_P2;Temp;Humidity;BMP_temperature;BMP_pressure;BME280_temperature;BME280_humidity;BME280_pressure;Samples;Min_cycle;Max_cycle;Signal;HPM_P1;HPM_P2
2024/03/21 00:00:24;;;;;;;25.27;13.02;;;;;;;;;;6085827;23;20090;-79
2024/03/21 00:02:51;;;;;;;23.23;11.80;;;;;;;;;;6083970;23;20048;-81
2024/03/21 00:05:17;;;;;;;27.13;14.48;;;;;;;;;;6108112;23;20010;-81
2024/03/21 00:07:46;;;;;;;23.95;12.95;;;;;;;;;;6108821;23;20021;-81
2024/03/21 00:10:12;;;;;;;24.98;13.23;;;;;;;;;;6085492;23;20021;-80
2024/03/21 00:12:41;;;;;;;25.38;12.88;;;;;;;;;;6083938;23;20321;-81
2024/03/21 00:15:07;;;;;;;24.33;14.05;;;;;;;;;;6084644;23;20100;-81
2024/03/21 00:17:33;;;;;;;22.30;11.95;;;;;;;;;;6084269;23;20017;-80
2024/03/21 00:19:59;;;;;;;25.20;14.38;;;;;;;;;;6086265;23;20014;-81
2024/03/21 00:22:25;;;;;;;24.00;14.32;;;;;;;;;;6062524;23;20097;-81
2024/03/21 00:24:55;;;;;;;25.63;13.68;;;;;;;;;;6063656;23;20017;-80
2024/03/21 00:27:20;;;;;;;25.67;12.95;;;;;;;;;;6104928;23;20088;-81
2024/03/21 00:29:50;;;;;;;26.63;14.05;;;;;;;;;;6081552;23;20012;-81
2024/03/21 00:32:16;;;;;;;25.95;13.00;;;;;;;;;;6110166;23;20009;-81
2024/03/21 00:34:42;;;;;;;23.15;13.05;;;;;;;;;;6059759;23;20359;-81
2024/03/21 00:37:08;;;;;;;26.48;13.00;;;;;;;;;;6067150;23;20022;-81
2024/03/21 00:39:38;;;;;;;23.73;13.60;;;;;;;;;;6109074;23;20014;-81
2024/03/21 00:42:04;;;;;;;26.70;13.90;;;;;;;;;;6134637;23;20014;-81
2024/03/21 00:44:33;;;;;;;22.25;13.13;;;;;;;;;;6088248;23;20014;-81
2024/03/21 00:46:59;;;;;;;23.50;13.20;;;;;;;;;;6084623;23;20088;-81
2024/03/21 00:49:25;;;;;;;27.65;13.13;;;;;;;;;;6080727;23;20010;-81
2024/03/21 00:51:50;;;;;;;24.63;13.00;;;;;;;;;;6086343;23;20018;-81
2024/03/21 00:54:16;;;;;;;25.13;13.98;;;;;;;;;;6106620;23;20010;-81
2024/03/21 00:56:45;;;;;;;23.67;13.52;;;;;;;;;;6082800;23;20017;-80
2024/03/21 00:59:10;;;;;;;23.40;13.30;;;;;;;;;;6083295;23;20006;-81
2024/03/21 01:01:40;;;;;;;23.75;13.50;;;;;;;;;;6060737;23;20033;-81
2024/03/21 01:04:06;;;;;;;21.85;13.98;;;;;;;;;;6111694;23;20010;-80
2024/03/21 01:06:32;;;;;;;23.80;13.60;;;;;;;;;;6115156;23;20020;-81
2024/03/21 01:08:57;;;;;;;26.27;14.23;;;;;;;;;;6110940;23;20006;-81
2024/03/21 01:11:23;;;;;;;25.55;14.52;;;;;;;;;;6070723;23;20002;-80
2024/03/21 01:13:50;;;;;;;24.17;14.02;;;;;;;;;;6086479;23;20044;-81
2024/03/21 01:16:16;;;;;;;25.13;14.43;;;;;;;;;;6066667;23;20010;-81
2024/03/21 01:18:42;;;;;;;27.83;14.07;;;;;;;;;;6083398;23;20073;-81
2024/03/21 01:21:08;;;;;;;27.80;14.35;;;;;;;;;;6060817;23;20045;-81
2024/03/21 01:23:34;;;;;;;31.83;15.05;;;;;;;;;;6040514;23;20013;-81
2024/03/21 01:26:02;;;;;;;24.58;13.73;;;;;;;;;;6132426;23;20013;-81
2024/03/21 01:28:30;;;;;;;25.42;14.02;;;;;;;;;;6111310;23;20061;-82
2024/03/21 01:30:59;;;;;;;24.65;13.95;;;;;;;;;;6109725;23;20006;-80
2024/03/21 01:33:28;;;;;;;27.42;14.13;;;;;;;;;;6060083;23;20006;-80
2024/03/21 01:35:59;;;;;;;24.58;13.05;;;;;;;;;;6084974;23;20037;-82
2024/03/21 01:38:28;;;;;;;24.45;13.73;;;;;;;;;;6111996;23;20006;-81
2024/03/21 01:40:54;;;;;;;25.30;14.10;;;;;;;;;;6085400;23;20384;-81
2024/03/21 01:43:21;;;;;;;26.35;14.48;;;;;;;;;;6085846;23;20064;-81
2024/03/21 01:46:05;;;;;;;25.92;14.18;;;;;;;;;;6085456;23;20373;-80
2024/03/21 01:48:32;;;;;;;29.88;14.35;;;;;;;;;;6058090;23;20017;-81
2024/03/21 01:50:58;;;;;;;27.27;15.18;;;;;;;;;;6086925;23;20010;-81
2024/03/21 01:53:27;;;;;;;26.40;14.70;;;;;;;;;;6136433;23;20005;-81
2024/03/21 01:55:53;;;;;;;26.98;14.27;;;;;;;;;;6063960;23;20018;-82
2024/03/21 01:58:19;;;;;;;26.73;14.40;;;;;;;;;;6114246;23;20037;-81
2024/03/21 02:00:46;;;;;;;27.13;14.43;;;;;;;;;;6114772;23;20010;-81
2024/03/21 02:03:12;;;;;;;27.40;14.10;;;;;;;;;;6097088;23;20025;-81
2024/03/21 02:05:39;;;;;;;25.13;13.55;;;;;;;;;;6125310;23;20014;-82
2024/03/21 02:08:08;;;;;;;24.65;13.55;;;;;;;;;;6104799;23;20017;-82
2024/03/21 02:10:35;;;;;;;28.75;14.27;;;;;;;;;;6080592;23;20014;-81
2024/03/21 02:13:09;;;;;;;23.00;14.60;;;;;;;;;;6128447;23;20010;-81
2024/03/21 02:15:36;;;;;;;28.23;14.57;;;;;;;;;;6104870;23;20046;-81
2024/03/21 02:18:03;;;;;;;25.25;13.25;;;;;;;;;;6128343;23;19996;-82
2024/03/21 02:20:30;;;;;;;33.40;13.70;;;;;;;;;;6122171;23;20110;-82
2024/03/21 02:22:58;;;;;;;25.77;12.77;;;;;;;;;;6113240;23;20017;-81
2024/03/21 02:25:28;;;;;;;21.30;12.20;;;;;;;;;;6111654;23;20018;-82
2024/03/21 02:28:02;;;;;;;22.27;12.40;;;;;;;;;;6117579;23;20060;-82
2024/03/21 02:30:29;;;;;;;26.35;13.05;;;;;;;;;;6146487;23;19994;-81
2024/03/21 02:32:56;;;;;;;30.00;13.98;;;;;;;;;;6121262;23;20010;-81
2024/03/21 02:35:24;;;;;;;31.30;13.85;;;;;;;;;;6079433;23;20037;-80
2024/03/21 02:37:49;;;;;;;25.55;12.63;;;;;;;;;;6076882;23;20017;-82
2024/03/21 02:40:19;;;;;;;23.20;13.45;;;;;;;;;;6151482;23;20444;-82
2024/03/21 02:42:45;;;;;;;27.77;13.10;;;;;;;;;;6098183;23;20012;-82
2024/03/21 02:45:17;;;;;;;22.88;13.50;;;;;;;;;;6111915;23;20014;-80
2024/03/21 02:47:42;;;;;;;20.10;12.33;;;;;;;;;;6110812;23;20100;-81
2024/03/21 02:50:10;;;;;;;21.40;12.40;;;;;;;;;;6139823;23;20256;-81
2024/03/21 02:52:37;;;;;;;33.25;14.52;;;;;;;;;;6086070;23;20311;-82
2024/03/21 02:55:04;;;;;;;20.60;12.00;;;;;;;;;;6111667;23;20057;-81
2024/03/21 02:57:31;;;;;;;26.23;12.00;;;;;;;;;;6086428;23;20057;-81
2024/03/21 02:59:57;;;;;;;26.40;12.45;;;;;;;;;;6086541;23;20006;-81
2024/03/21 03:02:29;;;;;;;29.02;11.75;;;;;;;;;;6065420;23;20336;-82
2024/03/21 03:04:56;;;;;;;20.65;11.38;;;;;;;;;;6087190;23;20014;-81
2024/03/21 03:07:25;;;;;;;23.65;12.07;;;;;;;;;;6089501;23;20026;-81
2024/03/21 03:09:51;;;;;;;22.10;11.45;;;;;;;;;;6136862;23;20093;-82
2024/03/21 03:12:24;;;;;;;20.92;10.88;;;;;;;;;;6139335;23;20045;-82
2024/03/21 03:14:49;;;;;;;20.10;11.15;;;;;;;;;;6113817;23;20014;-82
2024/03/21 03:17:16;;;;;;;24.15;10.90;;;;;;;;;;6114657;23;20011;-82
2024/03/21 03:19:42;;;;;;;23.55;11.15;;;;;;;;;;6087631;23;20048;-81
2024/03/21 03:22:11;;;;;;;20.33;11.65;;;;;;;;;;6061869;23;20011;-81
2024/03/21 03:24:36;;;;;;;21.98;11.48;;;;;;;;;;6112034;23;20009;-81
2024/03/21 03:27:02;;;;;;;18.88;10.57;;;;;;;;;;6122894;23;20120;-82
2024/03/21 03:29:28;;;;;;;19.27;11.02;;;;;;;;;;6105060;23;20014;-82
2024/03/21 03:32:01;;;;;;;23.33;11.25;;;;;;;;;;6131203;23;19990;-81
2024/03/21 03:37:17;;;;;;;20.00;10.40;;;;;;;;;;6152007;23;20013;-80
2024/03/21 03:39:51;;;;;;;22.58;11.32;;;;;;;;;;6145733;23;20017;-81
2024/03/21 03:42:22;;;;;;;23.60;11.35;;;;;;;;;;6114048;23;20009;-81
2024/03/21 03:44:50;;;;;;;19.25;11.13;;;;;;;;;;6060235;23;20463;-79
2024/03/21 03:47:16;;;;;;;23.25;10.55;;;;;;;;;;6112177;23;20066;-82
2024/03/21 03:49:44;;;;;;;17.35;9.68;;;;;;;;;;6083687;23;20006;-81
2024/03/21 03:52:11;;;;;;;15.80;9.35;;;;;;;;;;6088740;23;19994;-82
2024/03/21 03:54:38;;;;;;;20.95;10.13;;;;;;;;;;6133624;23;20006;-82
2024/03/21 03:57:03;;;;;;;24.17;12.25;;;;;;;;;;6061689;23;20013;-81
2024/03/21 03:59:32;;;;;;;22.35;10.52;;;;;;;;;;6063441;23;20010;-80
2024/03/21 04:01:59;;;;;;;20.50;11.38;;;;;;;;;;6108603;23;20053;-81
2024/03/21 04:04:29;;;;;;;18.23;10.57;;;;;;;;;;6088392;23;20010;-80
2024/03/21 04:06:56;;;;;;;15.70;9.68;;;;;;;;;;6136911;23;20042;-80
2024/03/21 04:09:24;;;;;;;19.08;9.77;;;;;;;;;;6060661;23;20100;-81
2024/03/21 04:11:50;;;;;;;18.17;10.00;;;;;;;;;;6061601;23;20006;-81
2024/03/21 04:14:16;;;;;;;16.75;9.55;;;;;;;;;;6085543;23;20013;-81
2024/03/21 04:16:43;;;;;;;19.70;9.88;;;;;;;;;;6108522;23;20014;-81
2024/03/21 04:19:10;;;;;;;16.75;9.60;;;;;;;;;;6084349;23;20057;-81
2024/03/21 04:21:38;;;;;;;15.30;8.70;;;;;;;;;;6086056;23;20459;-80
2024/03/21 04:24:05;;;;;;;14.57;9.20;;;;;;;;;;6108037;23;20073;-80
2024/03/21 04:26:32;;;;;;;21.83;9.50;;;;;;;;;;6084938;23;20013;-80
2024/03/21 04:28:58;;;;;;;18.58;9.85;;;;;;;;;;6036605;23;20087;-82
2024/03/21 04:31:25;;;;;;;15.05;8.88;;;;;;;;;;6061219;23;20456;-81
2024/03/21 04:33:52;;;;;;;22.43;9.17;;;;;;;;;;6109877;23;20017;-81
2024/03/21 04:36:17;;;;;;;21.98;8.68;;;;;;;;;;6110192;23;20045;-81
2024/03/21 04:38:44;;;;;;;17.15;8.70;;;;;;;;;;6111817;23;20065;-80
2024/03/21 04:41:09;;;;;;;15.48;8.75;;;;;;;;;;6114074;23;20010;-82
2024/03/21 04:43:35;;;;;;;15.32;8.85;;;;;;;;;;6062095;23;20009;-80
2024/03/21 04:46:00;;;;;;;14.70;8.52;;;;;;;;;;6112267;23;20014;-81
2024/03/21 04:48:29;;;;;;;19.25;9.82;;;;;;;;;;6136854;23;20006;-81
2024/03/21 04:50:56;;;;;;;16.15;8.05;;;;;;;;;;6068806;23;20006;-81
2024/03/21 04:53:24;;;;;;;16.95;8.80;;;;;;;;;;6092895;23;20012;-81
2024/03/21 04:55:49;;;;;;;13.23;7.78;;;;;;;;;;6099931;23;19994;-82
2024/03/21 04:58:15;;;;;;;18.85;8.27;;;;;;;;;;6126195;23;20017;-81
2024/03/21 05:00:41;;;;;;;18.20;8.38;;;;;;;;;;6125082;23;20010;-81
2024/03/21 05:03:09;;;;;;;14.02;8.73;;;;;;;;;;6080452;23;19998;-81
2024/03/21 05:05:37;;;;;;;19.33;8.82;;;;;;;;;;6126398;23;20030;-81
2024/03/21 05:08:05;;;;;;;19.45;8.48;;;;;;;;;;6126784;23;19990;-80
2024/03/21 05:10:32;;;;;;;16.48;9.02;;;;;;;;;;6098154;23;20002;-81
2024/03/21 05:12:57;;;;;;;13.90;8.10;;;;;;;;;;6115559;23;20009;-82
2024/03/21 05:15:23;;;;;;;17.42;9.63;;;;;;;;;;6121138;23;19993;-82
2024/03/21 05:17:48;;;;;;;20.17;9.18;;;;;;;;;;6074536;23;20009;-83
2024/03/21 05:20:16;;;;;;;18.10;8.13;;;;;;;;;;6114700;23;20013;-83
2024/03/21 05:22:44;;;;;;;15.70;8.60;;;;;;;;;;6089424;23;20010;-83
2024/03/21 05:25:10;;;;;;;17.80;8.45;;;;;;;;;;6061965;23;20038;-80
2024/03/21 05:27:38;;;;;;;17.63;8.05;;;;;;;;;;6062201;23;20499;-82
2024/03/21 05:30:05;;;;;;;14.98;8.68;;;;;;;;;;6062882;23;20034;-82
2024/03/21 05:32:31;;;;;;;14.95;8.13;;;;;;;;;;6086200;23;20085;-82
2024/03/21 05:34:57;;;;;;;15.43;8.80;;;;;;;;;;6059150;23;20053;-81
2024/03/21 05:37:23;;;;;;;17.95;8.07;;;;;;;;;;6106904;23;20042;-80
2024/03/21 05:39:49;;;;;;;17.80;8.57;;;;;;;;;;6082659;23;20014;-82
2024/03/21 05:42:16;;;;;;;15.80;8.60;;;;;;;;;;6109716;23;20021;-82
2024/03/21 05:44:43;;;;;;;15.65;8.23;;;;;;;;;;6083310;23;20455;-80
2024/03/21 05:47:22;;;;;;;16.65;8.23;;;;;;;;;;6077425;23;20033;-80
2024/03/21 05:49:49;;;;;;;19.60;9.27;;;;;;;;;;6062053;23;20085;-81
2024/03/21 05:52:19;;;;;;;15.60;8.80;;;;;;;;;;6099328;23;20060;-80
2024/03/21 05:54:49;;;;;;;17.45;8.65;;;;;;;;;;6077960;23;20084;-81
2024/03/21 05:57:19;;;;;;;15.52;8.15;;;;;;;;;;6082014;23;20069;-82
2024/03/21 05:59:53;;;;;;;18.90;10.40;;;;;;;;;;6095104;23;20018;-81
2024/03/21 06:02:22;;;;;;;14.35;8.02;;;;;;;;;;6126393;23;20013;-81
2024/03/21 06:04:55;;;;;;;15.07;8.32;;;;;;;;;;6150949;23;20006;-81
2024/03/21 06:07:22;;;;;;;15.07;8.15;;;;;;;;;;6076971;23;20010;-81
2024/03/21 06:09:50;;;;;;;15.70;7.95;;;;;;;;;;6032607;23;20010;-82
2024/03/21 06:12:17;;;;;;;15.02;9.02;;;;;;;;;;6076781;23;20006;-82
2024/03/21 06:14:48;;;;;;;16.80;9.23;;;;;;;;;;6124881;23;20006;-81
2024/03/21 06:17:16;;;;;;;;;;;;;;;;;;6100236;23;20401;-81
2024/03/21 06:19:47;;;;;;;18.23;8.93;;;;;;;;;;6080365;23;19905;-82
2024/03/21 06:22:17;;;;;;;17.90;8.27;;;;;;;;;;6078585;23;20010;-82
2024/03/21 06:24:45;;;;;;;;;;;;;;;;;;6101782;23;20437;-82
2024/03/21 06:27:17;;;;;;;16.33;8.30;;;;;;;;;;6103841;23;19905;-82
2024/03/21 06:29:43;;;;;;;13.45;8.30;;;;;;;;;;6054340;23;20010;-82
2024/03/21 06:32:14;;;;;;;16.63;8.40;;;;;;;;;;6104087;23;20006;-82
2024/03/21 06:34:44;;;;;;;13.68;8.02;;;;;;;;;;6079507;23;20021;-82
2024/03/21 06:37:15;;;;;;;16.38;7.82;;;;;;;;;;6080052;23;20042;-82
2024/03/21 06:39:47;;;;;;;21.55;9.13;;;;;;;;;;6102414;23;20017;-82
2024/03/21 06:42:13;;;;;;;17.35;8.65;;;;;;;;;;6053398;23;20045;-82
2024/03/21 06:44:42;;;;;;;14.02;8.10;;;;;;;;;;6098901;23;20010;-81
2024/03/21 06:47:21;;;;;;;18.65;8.30;;;;;;;;;;6126664;23;20021;-82
2024/03/21 06:49:50;;;;;;;19.00;9.20;;;;;;;;;;6077496;23;20013;-82
2024/03/21 06:52:20;;;;;;;17.10;7.80;;;;;;;;;;6076447;23;20069;-82
2024/03/21 06:54:46;;;;;;;17.75;8.32;;;;;;;;;;6077586;23;20325;-81
2024/03/21 06:57:14;;;;;;;14.43;8.43;;;;;;;;;;6078798;23;20014;-81
2024/03/21 06:59:43;;;;;;;16.85;8.27;;;;;;;;;;6100184;23;20101;-81
2024/03/21 07:02:09;;;;;;;31.63;8.98;;;;;;;;;;6101236;23;20444;-81
2024/03/21 07:04:36;;;;;;;15.88;8.07;;;;;;;;;;6100433;23;20002;-81
2024/03/21 07:07:02;;;;;;;19.23;8.35;;;;;;;;;;6052074;23;20010;-82
2024/03/21 07:09:54;;;;;;;15.80;8.10;;;;;;;;;;6081123;23;20347;-82
2024/03/21 07:12:20;;;;;;;23.30;8.65;;;;;;;;;;6076562;23;20006;-80
2024/03/21 07:14:45;;;;;;;17.27;8.07;;;;;;;;;;6099635;23;20006;-82
2024/03/21 07:17:11;;;;;;;21.45;8.57;;;;;;;;;;6099313;23;20006;-80
2024/03/21 07:19:36;;;;;;;16.15;7.93;;;;;;;;;;6076850;23;20363;-81
2024/03/21 07:22:05;;;;;;;14.02;7.68;;;;;;;;;;6054485;23;20010;-80
2024/03/21 07:24:32;;;;;;;14.43;7.78;;;;;;;;;;6053222;23;20061;-79
2024/03/21 07:26:58;;;;;;;14.32;7.47;;;;;;;;;;6076939;23;20016;-81
2024/03/21 07:29:23;;;;;;;16.02;8.10;;;;;;;;;;6053586;23;20010;-79
2024/03/21 07:31:49;;;;;;;19.98;7.78;;;;;;;;;;6077885;23;20013;-82
2024/03/21 07:34:14;;;;;;;19.08;8.23;;;;;;;;;;6101901;23;20005;-81
2024/03/21 07:36:40;;;;;;;20.85;8.13;;;;;;;;;;6052706;23;20016;-81
2024/03/21 07:39:05;;;;;;;14.27;8.05;;;;;;;;;;6055882;23;20347;-81
2024/03/21 07:41:31;;;;;;;20.98;7.60;;;;;;;;;;6055463;23;20093;-80
2024/03/21 07:43:57;;;;;;;15.82;8.27;;;;;;;;;;6129257;23;20010;-81
2024/03/21 07:46:22;;;;;;;16.63;7.80;;;;;;;;;;6104191;23;20018;-80
2024/03/21 07:48:48;;;;;;;18.23;7.50;;;;;;;;;;6079494;23;20428;-80
2024/03/21 07:51:13;;;;;;;20.85;8.70;;;;;;;;;;6055320;23;20044;-81
2024/03/21 07:53:39;;;;;;;14.13;7.57;;;;;;;;;;6056128;23;20006;-82
2024/03/21 07:56:04;;;;;;;15.55;7.03;;;;;;;;;;6104755;23;20352;-81
2024/03/21 07:58:30;;;;;;;15.75;7.55;;;;;;;;;;6077640;23;20002;-81
2024/03/21 08:00:55;;;;;;;16.05;7.85;;;;;;;;;;6103355;23;20018;-81
2024/03/21 08:03:21;;;;;;;15.57;7.88;;;;;;;;;;6148437;23;20029;-80
2024/03/21 08:05:46;;;;;;;15.40;8.13;;;;;;;;;;6118361;23;20058;-80
2024/03/21 08:08:21;;;;;;;19.90;8.20;;;;;;;;;;6106668;23;20002;-82
2024/03/21 08:10:47;;;;;;;18.75;7.65;;;;;;;;;;6053150;23;20006;-80
2024/03/21 08:13:12;;;;;;;16.52;8.07;;;;;;;;;;6054859;23;20352;-80
2024/03/21 08:15:38;;;;;;;18.30;8.20;;;;;;;;;;6055251;23;20010;-81
2024/03/21 08:18:04;;;;;;;22.65;8.68;;;;;;;;;;6103291;23;20014;-81
2024/03/21 08:20:30;;;;;;;21.88;8.18;;;;;;;;;;6103931;23;20014;-81
2024/03/21 08:22:59;;;;;;;18.67;7.40;;;;;;;;;;6080088;23;20085;-82
2024/03/21 08:25:27;;;;;;;15.27;7.80;;;;;;;;;;6057386;23;20010;-82
2024/03/21 08:27:55;;;;;;;15.35;7.35;;;;;;;;;;6080373;23;20008;-80
2024/03/21 08:30:24;;;;;;;21.10;8.40;;;;;;;;;;6105745;23;20041;-81
2024/03/21 08:32:50;;;;;;;20.75;7.95;;;;;;;;;;6127563;23;20016;-79
2024/03/21 08:35:17;;;;;;;15.88;7.47;;;;;;;;;;6102302;23;20077;-80
2024/03/21 08:37:45;;;;;;;14.70;7.78;;;;;;;;;;6129057;23;20033;-80
2024/03/21 08:40:13;;;;;;;16.83;8.35;;;;;;;;;;6054993;23;20088;-81
2024/03/21 08:42:39;;;;;;;;;;;;;;;;;;6059630;23;20010;-80
2024/03/21 08:45:09;;;;;;;15.98;6.80;;;;;;;;;;6080811;23;20327;-80
2024/03/21 08:47:36;;;;;;;21.02;6.95;;;;;;;;;;6109533;23;20006;-82
2024/03/21 08:50:01;;;;;;;12.70;7.13;;;;;;;;;;6109147;23;20037;-83
2024/03/21 08:52:27;;;;;;;11.93;6.82;;;;;;;;;;6061852;23;20093;-84
2024/03/21 08:54:52;;;;;;;14.40;8.25;;;;;;;;;;6084073;23;20025;-84
2024/03/21 08:57:18;;;;;;;14.60;7.40;;;;;;;;;;6082981;23;20022;-82
2024/03/21 08:59:44;;;;;;;16.55;7.30;;;;;;;;;;6057926;23;20292;-83
2024/03/21 09:02:11;;;;;;;14.57;6.75;;;;;;;;;;6058625;23;20005;-82
2024/03/21 09:04:37;;;;;;;14.52;6.70;;;;;;;;;;6081128;23;20459;-84
2024/03/21 09:07:04;;;;;;;16.52;7.25;;;;;;;;;;6059958;23;20014;-83
2024/03/21 09:09:32;;;;;;;18.77;7.75;;;;;;;;;;6104107;23;20032;-84
2024/03/21 09:11:57;;;;;;;16.23;7.25;;;;;;;;;;6104005;23;20455;-84
2024/03/21 09:14:23;;;;;;;14.98;7.45;;;;;;;;;;6055901;23;20020;-84
2024/03/21 09:16:51;;;;;;;11.98;6.35;;;;;;;;;;6081007;23;20406;-82
2024/03/21 09:19:17;;;;;;;16.42;7.80;;;;;;;;;;6080695;23;20034;-83
2024/03/21 09:21:42;;;;;;;11.85;7.25;;;;;;;;;;6059625;23;20092;-83
2024/03/21 09:24:08;;;;;;;39.53;8.40;;;;;;;;;;6079636;23;20037;-84
2024/03/21 09:26:34;;;;;;;11.43;6.65;;;;;;;;;;6080051;23;20013;-84
2024/03/21 09:29:00;;;;;;;12.70;6.90;;;;;;;;;;6103334;23;20006;-84
2024/03/21 09:31:26;;;;;;;12.05;6.53;;;;;;;;;;6079159;23;20032;-83
2024/03/21 09:33:54;;;;;;;14.15;7.85;;;;;;;;;;6058898;23;20038;-83
2024/03/21 09:36:20;;;;;;;19.13;8.05;;;;;;;;;;6080149;23;20010;-82
2024/03/21 09:38:45;;;;;;;13.25;7.20;;;;;;;;;;6056645;23;20025;-85
2024/03/21 09:41:13;;;;;;;14.40;6.88;;;;;;;;;;6080609;23;20013;-85
2024/03/21 09:43:39;;;;;;;11.45;6.78;;;;;;;;;;6055885;23;20009;-84
2024/03/21 09:46:04;;;;;;;15.70;7.40;;;;;;;;;;6056429;23;20358;-85
2024/03/21 09:48:33;;;;;;;17.55;8.68;;;;;;;;;;6056391;23;20084;-86
2024/03/21 09:51:01;;;;;;;20.27;12.38;;;;;;;;;;6055306;23;20010;-84
2024/03/21 09:53:27;;;;;;;17.90;8.27;;;;;;;;;;6055707;23;20052;-80
2024/03/21 09:55:52;;;;;;;15.55;7.90;;;;;;;;;;6078147;23;20037;-80
2024/03/21 09:58:20;;;;;;;12.23;6.97;;;;;;;;;;6080626;23;20014;-80
2024/03/21 10:00:48;;;;;;;13.15;6.97;;;;;;;;;;6102787;23;20435;-80
2024/03/21 10:03:14;;;;;;;13.67;6.97;;;;;;;;;;6055767;23;20009;-81
2024/03/21 10:05:45;;;;;;;13.10;7.45;;;;;;;;;;6056063;23;20655;-81
2024/03/21 10:08:10;;;;;;;16.42;7.38;;;;;;;;;;6104797;23;20002;-81
2024/03/21 10:10:36;;;;;;;15.57;7.45;;;;;;;;;;6079673;23;20025;-81
2024/03/21 10:13:01;;;;;;;19.55;7.97;;;;;;;;;;6055412;23;20364;-82
2024/03/21 10:15:31;;;;;;;10.43;6.95;;;;;;;;;;6056706;23;20058;-81
2024/03/21 10:17:58;;;;;;;19.65;6.53;;;;;;;;;;6081447;23;20348;-82
2024/03/21 10:20:24;;;;;;;13.10;6.18;;;;;;;;;;6056965;23;20014;-81
2024/03/21 10:22:51;;;;;;;13.60;6.25;;;;;;;;;;6056707;23;20478;-83
2024/03/21 10:25:18;;;;;;;11.68;6.20;;;;;;;;;;6104174;23;20324;-81
2024/03/21 10:27:53;;;;;;;10.57;6.20;;;;;;;;;;6058929;23;20002;-82
2024/03/21 10:30:21;;;;;;;12.23;6.80;;;;;;;;;;6062005;23;20006;-81
2024/03/21 10:32:47;;;;;;;11.73;6.47;;;;;;;;;;6090540;23;20001;-83
2024/03/21 10:35:14;;;;;;;10.73;6.00;;;;;;;;;;6066532;23;20018;-82
2024/03/21 10:37:41;;;;;;;11.27;6.38;;;;;;;;;;6066364;23;20033;-82
2024/03/21 10:40:11;;;;;;;13.43;7.18;;;;;;;;;;6118920;23;20095;-81
2024/03/21 10:42:40;;;;;;;12.52;7.00;;;;;;;;;;6113765;23;20088;-80
2024/03/21 10:45:12;;;;;;;14.90;6.82;;;;;;;;;;6119089;23;19997;-81
2024/03/21 10:47:45;;;;;;;12.57;6.63;;;;;;;;;;6092768;23;20033;-80
2024/03/21 10:50:21;;;;;;;12.23;6.28;;;;;;;;;;6092101;23;20312;-81
2024/03/21 10:52:50;;;;;;;13.65;6.97;;;;;;;;;;6138227;23;20024;-81
2024/03/21 10:55:16;;;;;;;11.32;6.82;;;;;;;;;;6060475;23;20013;-81
2024/03/21 10:57:45;;;;;;;14.63;6.38;;;;;;;;;;6082755;23;20016;-80
2024/03/21 11:00:14;;;;;;;12.57;7.20;;;;;;;;;;6056580;23;20455;-81
2024/03/21 11:02:39;;;;;;;11.93;7.18;;;;;;;;;;6059683;23;20010;-82
2024/03/21 11:05:12;;;;;;;14.18;7.28;;;;;;;;;;6106097;23;20084;-81
2024/03/21 11:07:38;;;;;;;14.65;7.50;;;;;;;;;;6107375;23;20006;-80
2024/03/21 11:10:04;;;;;;;11.15;6.78;;;;;;;;;;6081681;23;20116;-81
2024/03/21 11:12:32;;;;;;;13.52;7.68;;;;;;;;;;6082411;23;20040;-82
2024/03/21 11:14:57;;;;;;;12.50;7.43;;;;;;;;;;6082492;23;20361;-83
2024/03/21 11:17:24;;;;;;;14.90;8.95;;;;;;;;;;6081758;23;20010;-81
2024/03/21 11:19:52;;;;;;;15.75;9.45;;;;;;;;;;6080831;23;20013;-80
2024/03/21 11:22:18;;;;;;;14.60;7.63;;;;;;;;;;6083872;23;20006;-79
2024/03/21 11:24:44;;;;;;;14.63;7.90;;;;;;;;;;6082746;23;20006;-82
2024/03/21 11:27:21;;;;;;;11.15;7.07;;;;;;;;;;6083219;23;20017;-81
2024/03/21 11:29:47;;;;;;;13.40;7.15;;;;;;;;;;6108610;23;20048;-81
2024/03/21 11:32:19;;;;;;;11.73;6.82;;;;;;;;;;6105402;23;20416;-81
2024/03/21 11:34:45;;;;;;;13.40;6.45;;;;;;;;;;6059193;23;20037;-80
2024/03/21 11:37:12;;;;;;;12.57;7.05;;;;;;;;;;6083046;23;20002;-81
2024/03/21 11:39:39;;;;;;;11.82;7.20;;;;;;;;;;6077675;23;20014;-80
2024/03/21 11:42:11;;;;;;;10.98;6.60;;;;;;;;;;6101242;23;20509;-82
2024/03/21 11:44:37;;;;;;;17.40;6.95;;;;;;;;;;6056999;23;20094;-82
2024/03/21 11:47:04;;;;;;;11.23;7.05;;;;;;;;;;6102555;23;20448;-83
2024/03/21 11:49:29;;;;;;;11.68;6.40;;;;;;;;;;6055240;23;20030;-81
2024/03/21 11:51:55;;;;;;;12.18;7.18;;;;;;;;;;6054715;23;20033;-82
2024/03/21 11:54:20;;;;;;;12.07;6.97;;;;;;;;;;6054815;23;20314;-82
2024/03/21 11:56:49;;;;;;;11.10;6.60;;;;;;;;;;6054899;23;20075;-81
2024/03/21 11:59:14;;;;;;;;;;;;;;;;;;6052413;23;20014;-82
2024/03/21 12:01:40;;;;;;;12.45;6.60;;;;;;;;;;6101943;23;19905;-82
2024/03/21 12:04:07;;;;;;;11.25;6.07;;;;;;;;;;6055756;23;20030;-82
2024/03/21 12:06:33;;;;;;;12.82;6.35;;;;;;;;;;6054111;23;20014;-83
2024/03/21 12:08:59;;;;;;;11.73;6.28;;;;;;;;;;6055083;23;20057;-82
2024/03/21 12:11:24;;;;;;;13.80;7.82;;;;;;;;;;6078232;23;20014;-80
2024/03/21 12:13:51;;;;;;;12.70;7.65;;;;;;;;;;6079732;23;20086;-82
2024/03/21 12:16:20;;;;;;;13.27;7.20;;;;;;;;;;6055783;23;20010;-82
2024/03/21 12:18:47;;;;;;;16.27;8.60;;;;;;;;;;6076075;23;20026;-82
2024/03/21 12:21:19;;;;;;;15.48;7.72;;;;;;;;;;6076847;23;20018;-81
2024/03/21 12:23:47;;;;;;;15.40;6.97;;;;;;;;;;6075870;23;20014;-81
2024/03/21 12:26:14;;;;;;;15.80;7.53;;;;;;;;;;6051915;23;20573;-81
2024/03/21 12:28:40;;;;;;;13.73;7.30;;;;;;;;;;6097862;23;20082;-81
2024/03/21 12:31:13;;;;;;;11.20;7.13;;;;;;;;;;6099073;23;20014;-82
2024/03/21 12:33:41;;;;;;;13.38;7.47;;;;;;;;;;6050530;23;20424;-81
2024/03/21 12:36:07;;;;;;;;;;;;;;;;;;6052136;23;20018;-81
2024/03/21 12:38:33;;;;;;;13.38;7.85;;;;;;;;;;6073303;23;20349;-81
2024/03/21 12:40:59;;;;;;;21.45;8.52;;;;;;;;;;6049217;23;20014;-82
2024/03/21 12:43:25;;;;;;;9.85;6.72;;;;;;;;;;6049558;23;20077;-82
2024/03/21 12:45:52;;;;;;;12.93;6.95;;;;;;;;;;6098169;23;20079;-80
2024/03/21 12:48:18;;;;;;;14.77;7.80;;;;;;;;;;6074387;23;20014;-81
2024/03/21 12:50:47;;;;;;;15.02;8.05;;;;;;;;;;6072567;23;20010;-81
2024/03/21 12:53:20;;;;;;;12.80;6.90;;;;;;;;;;6075030;23;20054;-82
2024/03/21 12:56:00;;;;;;;14.60;7.60;;;;;;;;;;6070803;23;20053;-80
2024/03/21 12:58:38;;;;;;;14.73;6.93;;;;;;;;;;5986177;23;20022;-82
2024/03/21 13:01:37;;;;;;;16.10;7.40;;;;;;;;;;6101607;23;20487;-81
2024/03/21 13:05:04;;;;;;;11.40;7.18;;;;;;;;;;6084856;23;20093;-80
2024/03/21 13:07:37;;;;;;;11.52;6.55;;;;;;;;;;6078973;23;20021;-80
2024/03/21 13:25:06;;;;;;;10.43;6.60;;;;;;;;;;6133222;23;20017;-81
2024/03/21 13:27:37;;;;;;;13.00;7.75;;;;;;;;;;6138067;23;20112;-82
2024/03/21 13:30:05;;;;;;;14.68;7.55;;;;;;;;;;6096654;23;20005;-81
2024/03/21 13:32:33;;;;;;;13.57;7.55;;;;;;;;;;6122661;23;20048;-81
2024/03/21 13:34:59;;;;;;;13.90;7.83;;;;;;;;;;6103756;23;20064;-81
2024/03/21 13:37:25;;;;;;;13.48;7.80;;;;;;;;;;6151171;23;20232;-81
2024/03/21 13:39:51;;;;;;;13.80;7.97;;;;;;;;;;6113716;23;20034;-80
2024/03/21 13:42:17;;;;;;;17.17;9.55;;;;;;;;;;6142378;23;20017;-79
2024/03/21 13:44:43;;;;;;;19.45;10.57;;;;;;;;;;6128697;23;20006;-81
2024/03/21 13:47:08;;;;;;;20.33;9.88;;;;;;;;;;6112224;23;20145;-81
2024/03/21 13:49:34;;;;;;;17.00;10.02;;;;;;;;;;6066364;23;20037;-81
2024/03/21 13:52:04;;;;;;;22.63;11.30;;;;;;;;;;6115290;23;20017;-82
2024/03/21 13:54:36;;;;;;;27.13;14.43;;;;;;;;;;6113246;23;20052;-80
2024/03/21 13:57:05;;;;;;;28.80;14.77;;;;;;;;;;6092822;23;20010;-82
2024/03/21 13:59:32;;;;;;;26.65;15.90;;;;;;;;;;6117551;23;20018;-81
2024/03/21 14:01:58;;;;;;;28.52;16.58;;;;;;;;;;6116325;23;20020;-81
2024/03/21 14:04:25;;;;;;;23.35;14.73;;;;;;;;;;6113518;23;20009;-82
2024/03/21 14:06:51;;;;;;;23.63;15.65;;;;;;;;;;6116546;23;20013;-80
2024/03/21 14:09:22;;;;;;;24.02;15.65;;;;;;;;;;6114743;23;19998;-81
2024/03/21 14:11:48;;;;;;;33.20;17.27;;;;;;;;;;6115768;23;20025;-82
2024/03/21 14:14:19;;;;;;;26.85;15.40;;;;;;;;;;6091341;23;20062;-82
2024/03/21 14:16:45;;;;;;;24.75;16.48;;;;;;;;;;6117354;23;20036;-82
2024/03/21 14:19:11;;;;;;;22.85;14.77;;;;;;;;;;6117102;23;20539;-82
2024/03/21 14:21:40;;;;;;;19.48;12.63;;;;;;;;;;6093851;23;20116;-82
2024/03/21 14:24:11;;;;;;;16.88;11.30;;;;;;;;;;6094847;23;20009;-81
2024/03/21 14:26:39;;;;;;;16.60;11.52;;;;;;;;;;6120055;23;20010;-81
2024/03/21 14:29:06;;;;;;;13.13;9.27;;;;;;;;;;6095378;23;20030;-82
2024/03/21 14:31:40;;;;;;;14.02;10.57;;;;;;;;;;6073073;23;20006;-80
2024/03/21 14:34:11;;;;;;;13.65;9.48;;;;;;;;;;6117540;23;20010;-82
2024/03/21 14:36:47;;;;;;;13.93;10.05;;;;;;;;;;6093412;23;20010;-82
2024/03/21 14:39:14;;;;;;;13.30;8.65;;;;;;;;;;6100417;23;20165;-80
2024/03/21 14:41:40;;;;;;;16.42;8.60;;;;;;;;;;6040465;23;20018;-82
2024/03/21 14:44:06;;;;;;;12.00;7.00;;;;;;;;;;6041129;23;20082;-81
2024/03/21 14:46:42;;;;;;;13.55;8.38;;;;;;;;;;6090075;23;20037;-82